createdAt,value
2023-02-28T00:03:40.969Z,2.17
2023-02-28T00:07:23.008Z,2.30
2023-02-28T00:11:06.864Z,2.00
2023-02-28T00:14:48.923Z,1.88
2023-02-28T00:18:31.603Z,1.58
2023-02-28T00:22:13.645Z,2.10
2023-02-28T00:25:55.831Z,1.60
2023-02-28T00:29:38.584Z,1.90
2023-02-28T00:33:20.809Z,1.30
2023-02-28T00:37:02.819Z,1.77
2023-02-28T00:40:44.835Z,1.58
2023-02-28T00:44:26.893Z,1.65
2023-02-28T00:48:08.890Z,1.70
2023-02-28T00:51:51.591Z,3.10
2023-02-28T00:55:33.602Z,3.28
2023-02-28T00:59:16.855Z,3.60
2023-02-28T01:02:58.866Z,3.00
2023-02-28T01:06:41.276Z,2.72
2023-02-28T01:10:23.295Z,2.47
2023-02-28T01:14:05.307Z,2.88
2023-02-28T01:17:47.302Z,2.15
2023-02-28T01:21:30.992Z,2.05
2023-02-28T01:25:13.485Z,2.20
2023-02-28T01:28:55.642Z,2.20
2023-02-28T01:32:37.832Z,2.28
2023-02-28T01:36:25.105Z,1.92
2023-02-28T01:40:07.833Z,2.05
2023-02-28T01:43:49.741Z,2.28
2023-02-28T01:47:39.292Z,2.83
2023-02-28T01:51:35.448Z,2.58
2023-02-28T01:55:21.312Z,2.30
2023-02-28T01:59:04.530Z,2.50
2023-02-28T02:02:49.102Z,2.38
2023-02-28T02:06:40.349Z,2.05
2023-02-28T02:10:33.663Z,2.40
2023-02-28T02:14:24.167Z,2.28
2023-02-28T02:18:20.700Z,2.28
2023-02-28T02:22:35.943Z,2.60
2023-02-28T02:26:20.909Z,2.42
2023-02-28T02:30:50.530Z,2.15
2023-02-28T02:34:49.400Z,2.00
2023-02-28T02:38:35.330Z,1.92
2023-02-28T02:42:29.233Z,2.30
2023-02-28T02:46:18.814Z,2.00
2023-02-28T02:50:05.774Z,2.35
2023-02-28T02:53:50.821Z,2.28
2023-02-28T02:57:41.559Z,1.90
2023-02-28T03:01:31.531Z,1.88
2023-02-28T03:05:23.927Z,1.92
2023-02-28T03:09:05.944Z,2.10
2023-02-28T03:12:55.438Z,2.35
2023-02-28T03:17:22.612Z,2.15
2023-02-28T03:21:53.703Z,2.20
2023-02-28T03:26:08.848Z,2.10
2023-02-28T03:30:04.108Z,2.10
2023-02-28T03:33:56.567Z,2.30
2023-02-28T03:37:42.151Z,2.40
2023-02-28T03:41:28.909Z,2.40
2023-02-28T03:45:20.885Z,2.10
2023-02-28T03:49:29.929Z,2.42
2023-02-28T03:53:24.825Z,2.13
2023-02-28T03:57:11.780Z,2.08
2023-02-28T04:01:12.467Z,1.88
2023-02-28T04:04:55.068Z,1.75
2023-02-28T04:08:37.101Z,1.90
2023-02-28T04:12:19.064Z,2.05
2023-02-28T04:16:01.049Z,2.00
2023-02-28T04:19:43.067Z,2.10
2023-02-28T04:23:25.073Z,2.03
2023-02-28T04:27:07.038Z,1.83
2023-02-28T04:30:54.859Z,2.40
2023-02-28T04:34:37.171Z,3.05
2023-02-28T04:38:19.138Z,3.30
2023-02-28T04:42:01.151Z,3.05
2023-02-28T04:45:43.137Z,2.90
2023-02-28T04:49:25.314Z,3.40
2023-02-28T04:53:07.295Z,3.10
2023-02-28T04:56:51.044Z,2.75
2023-02-28T05:00:33.081Z,2.83
2023-02-28T05:04:15.340Z,2.72
2023-02-28T05:07:57.462Z,2.90
2023-02-28T05:11:40.568Z,2.58
2023-02-28T05:15:22.679Z,2.47
2023-02-28T05:19:04.873Z,2.80
2023-02-28T05:22:47.016Z,2.65
2023-02-28T05:26:29.455Z,2.75
2023-02-28T05:30:12.044Z,2.88
2023-02-28T05:33:54.235Z,2.88
2023-02-28T05:37:36.415Z,2.75
2023-02-28T05:41:20.542Z,2.45
2023-02-28T05:45:02.533Z,2.80
2023-02-28T05:48:48.540Z,2.55
2023-02-28T05:52:33.326Z,2.90
2023-02-28T05:56:15.309Z,3.30
2023-02-28T05:59:57.311Z,3.25
2023-02-28T06:03:39.300Z,3.08
2023-02-28T06:07:23.332Z,3.08
2023-02-28T06:11:05.942Z,3.17
2023-02-28T06:14:47.881Z,3.20
2023-02-28T06:18:30.248Z,3.10
2023-02-28T06:22:12.290Z,2.78
2023-02-28T06:25:54.421Z,3.00
2023-02-28T06:29:36.731Z,2.83
2023-02-28T06:33:18.697Z,3.53
2023-02-28T06:37:03.349Z,3.35
2023-02-28T06:40:46.140Z,3.10
2023-02-28T06:44:28.111Z,3.28
2023-02-28T06:48:10.186Z,3.78
2023-02-28T06:51:52.227Z,3.58
2023-02-28T06:55:34.253Z,3.00
2023-02-28T06:59:16.682Z,3.55
2023-02-28T07:02:58.675Z,3.35
2023-02-28T07:06:40.661Z,3.63
2023-02-28T07:10:22.742Z,3.35
2023-02-28T07:14:04.801Z,3.67
2023-02-28T07:17:46.792Z,3.42
2023-02-28T07:21:29.312Z,3.30
2023-02-28T07:25:11.592Z,3.00
2023-02-28T07:28:54.282Z,3.90
2023-02-28T07:32:38.981Z,3.55
2023-02-28T07:36:21.097Z,3.63
2023-02-28T07:40:08.603Z,3.40
2023-02-28T07:43:50.726Z,3.60
2023-02-28T07:47:32.934Z,3.08
2023-02-28T07:51:15.249Z,3.58
2023-02-28T07:54:57.759Z,3.60
2023-02-28T07:58:39.789Z,3.45
2023-02-28T08:02:23.423Z,4.03
2023-02-28T08:06:06.732Z,3.67
2023-02-28T08:09:48.722Z,3.35
2023-02-28T08:13:31.787Z,2.90
2023-02-28T08:17:13.794Z,3.60
2023-02-28T08:20:55.765Z,3.13
2023-02-28T08:24:37.792Z,3.58
2023-02-28T08:28:19.794Z,3.10
2023-02-28T08:32:02.222Z,3.75
2023-02-28T08:35:44.399Z,3.80
2023-02-28T08:39:26.476Z,4.05
2023-02-28T08:43:08.501Z,3.95
2023-02-28T08:46:50.494Z,3.63
2023-02-28T08:50:32.563Z,3.72
2023-02-28T08:54:17.078Z,3.28
2023-02-28T08:57:59.537Z,3.20
2023-02-28T09:01:42.640Z,3.45
2023-02-28T09:05:24.645Z,3.80
2023-02-28T09:09:08.487Z,3.97
2023-02-28T09:12:50.436Z,3.85
2023-02-28T09:16:34.828Z,3.80
2023-02-28T09:20:17.004Z,3.10
2023-02-28T09:23:59.115Z,3.70
2023-02-28T09:27:42.383Z,3.97
2023-02-28T09:31:27.764Z,3.30
2023-02-28T09:35:14.509Z,4.25
2023-02-28T09:38:56.648Z,3.10
2023-02-28T09:42:38.708Z,3.55
2023-02-28T09:46:35.812Z,3.03
2023-02-28T09:54:06.715Z,3.78
2023-02-28T09:57:50.321Z,3.20
2023-02-28T10:01:42.175Z,2.75
2023-02-28T10:05:28.915Z,2.22
2023-02-28T10:09:25.902Z,1.55
2023-02-28T10:13:24.372Z,1.45
2023-02-28T10:17:15.000Z,1.40
2023-02-28T10:20:57.798Z,1.40
2023-02-28T10:24:47.870Z,1.35
2023-02-28T10:28:32.045Z,1.42
2023-02-28T10:32:23.794Z,1.40
2023-02-28T10:36:07.948Z,1.38
2023-02-28T10:39:50.315Z,1.30
2023-02-28T10:43:32.361Z,1.23
2023-02-28T10:47:19.415Z,1.10
2023-02-28T10:51:02.083Z,1.10
2023-02-28T10:54:44.081Z,1.10
2023-02-28T10:58:28.481Z,1.10
2023-02-28T11:06:28.750Z,1.10
2023-02-28T11:10:22.015Z,1.00
2023-02-28T11:14:17.375Z,1.40
2023-02-28T11:18:04.738Z,1.08
2023-02-28T11:22:04.194Z,1.20
2023-02-28T11:25:52.415Z,1.27
2023-02-28T11:29:36.093Z,1.30
2023-02-28T11:33:29.610Z,1.13
2023-02-28T11:37:18.755Z,1.15
2023-02-28T11:41:10.562Z,1.20
2023-02-28T11:45:04.612Z,1.10
2023-02-28T11:48:49.359Z,1.17
2023-02-28T11:52:49.925Z,1.13
2023-02-28T11:56:51.701Z,1.35
2023-02-28T12:00:51.772Z,1.15
2023-02-28T12:04:36.528Z,1.20
2023-02-28T12:08:45.340Z,4.68
2023-02-28T12:13:01.108Z,2.10
2023-02-28T12:16:46.982Z,1.58
2023-02-28T12:20:31.985Z,1.80
2023-02-28T12:24:13.863Z,1.98
2023-02-28T12:27:55.968Z,2.00
2023-02-28T12:31:42.178Z,2.58
2023-02-28T12:35:35.869Z,2.60
2023-02-28T12:39:28.019Z,2.50
2023-02-28T12:43:13.658Z,2.55
2023-02-28T12:47:01.532Z,2.53
2023-02-28T12:50:44.416Z,2.53
2023-02-28T12:54:58.635Z,2.67
2023-02-28T12:58:47.101Z,2.80
2023-02-28T13:03:00.707Z,2.78
2023-02-28T13:07:09.916Z,2.78
2023-02-28T13:10:55.753Z,2.70
2023-02-28T13:14:39.118Z,3.50
2023-02-28T13:18:47.952Z,4.72
2023-02-28T13:22:44.028Z,4.05
2023-02-28T13:26:51.872Z,3.28
2023-02-28T13:30:52.884Z,3.00
2023-02-28T13:34:42.191Z,2.92
2023-02-28T13:38:33.429Z,2.55
2023-02-28T13:42:32.881Z,2.42
2023-02-28T13:46:15.183Z,2.50
2023-02-28T13:50:34.982Z,3.20
2023-02-28T13:54:25.556Z,2.63
2023-02-28T13:58:10.710Z,2.72
2023-02-28T14:02:20.162Z,2.90
2023-02-28T14:06:17.030Z,2.85
2023-02-28T14:10:06.447Z,3.22
2023-02-28T14:13:49.393Z,2.75
2023-02-28T14:17:31.634Z,2.78
2023-02-28T14:21:39.214Z,2.70
2023-02-28T14:29:29.654Z,2.13
2023-02-28T14:33:24.134Z,2.08
2023-02-28T14:37:06.761Z,1.70
2023-02-28T14:40:53.189Z,1.80
2023-02-28T14:44:37.718Z,1.35
2023-02-28T14:48:21.244Z,1.60
2023-02-28T14:52:30.880Z,1.50
2023-02-28T14:56:40.052Z,1.60
2023-02-28T15:00:26.582Z,1.80
2023-02-28T15:04:26.113Z,1.60
2023-02-28T15:08:15.174Z,1.90
2023-02-28T15:11:57.230Z,2.28
2023-02-28T15:16:03.442Z,1.95
2023-02-28T15:19:54.233Z,1.77
2023-02-28T15:23:38.692Z,1.70
2023-02-28T15:27:25.096Z,1.88
2023-02-28T15:31:26.917Z,1.50
2023-02-28T15:35:26.483Z,1.60
2023-02-28T15:39:23.714Z,1.40
2023-02-28T15:47:00.911Z,1.50
2023-02-28T15:50:43.077Z,1.00
2023-02-28T15:54:31.841Z,1.00
2023-02-28T15:58:14.765Z,0.90
2023-02-28T16:02:10.726Z,1.00
2023-02-28T16:06:23.481Z,0.85
2023-02-28T16:10:07.694Z,0.93
2023-02-28T16:13:51.159Z,1.20
2023-02-28T16:17:36.922Z,1.30
2023-02-28T16:21:19.095Z,1.40
2023-02-28T16:25:01.121Z,1.30
2023-02-28T16:28:44.425Z,1.48
2023-02-28T16:32:26.438Z,1.30
2023-02-28T16:36:15.481Z,1.17
2023-02-28T16:39:57.441Z,1.25
2023-02-28T16:43:39.648Z,1.30
2023-02-28T16:47:22.485Z,1.48
2023-02-28T16:51:05.511Z,1.23
2023-02-28T16:54:47.577Z,1.20
2023-02-28T16:58:29.909Z,1.70
2023-02-28T17:02:20.654Z,1.20
2023-02-28T17:06:03.236Z,1.40
2023-02-28T17:09:46.851Z,1.40
2023-02-28T17:13:28.992Z,1.50
2023-02-28T17:17:19.204Z,1.20
2023-02-28T17:21:02.171Z,1.20
2023-02-28T17:24:44.144Z,1.23
2023-02-28T17:28:26.260Z,1.40
2023-02-28T17:32:17.234Z,1.60
2023-02-28T17:35:59.754Z,1.40
2023-02-28T17:39:41.892Z,1.65
2023-02-28T17:43:28.197Z,1.83
2023-02-28T17:47:13.006Z,1.55
2023-02-28T17:50:55.419Z,1.90
2023-02-28T17:54:37.401Z,1.33
2023-02-28T17:58:19.775Z,1.60
2023-02-28T18:02:02.326Z,1.63
2023-02-28T18:05:44.405Z,1.40
2023-02-28T18:09:27.336Z,1.10
2023-02-28T18:13:09.412Z,1.50
2023-02-28T18:16:52.473Z,1.23
2023-02-28T18:20:35.954Z,1.40
2023-02-28T18:24:19.424Z,1.58
2023-02-28T18:28:02.291Z,1.40
2023-02-28T18:31:45.765Z,1.50
2023-02-28T18:35:35.511Z,1.27
2023-02-28T18:39:18.457Z,1.50
2023-02-28T18:43:00.535Z,1.67
2023-02-28T18:46:42.498Z,1.67
2023-02-28T18:50:24.585Z,1.50
2023-02-28T18:54:07.308Z,1.50
2023-02-28T18:57:49.320Z,1.70
2023-02-28T19:01:32.652Z,1.50
2023-02-28T19:05:14.662Z,1.40
2023-02-28T19:08:58.473Z,1.20
2023-02-28T19:12:43.012Z,1.90
2023-02-28T19:16:25.983Z,1.65
2023-02-28T19:20:09.797Z,1.63
2023-02-28T19:23:51.788Z,1.38
2023-02-28T19:27:34.003Z,1.40
2023-02-28T19:31:26.853Z,1.33
2023-02-28T19:35:09.233Z,1.67
2023-02-28T19:38:51.442Z,1.80
2023-02-28T19:42:35.132Z,1.52
2023-02-28T19:46:19.004Z,1.70
2023-02-28T19:50:01.005Z,1.63
2023-02-28T19:53:43.611Z,1.70
2023-02-28T19:57:25.613Z,1.63
2023-02-28T20:01:18.762Z,1.60
2023-02-28T20:05:01.429Z,1.70
2023-02-28T20:08:43.701Z,1.67
2023-02-28T20:12:26.273Z,1.65
2023-02-28T20:16:10.461Z,1.35
2023-02-28T20:19:52.566Z,1.77
2023-02-28T20:23:34.557Z,1.60
2023-02-28T20:27:17.394Z,1.35
2023-02-28T20:31:00.773Z,1.38
2023-02-28T20:34:42.937Z,1.27
2023-02-28T20:38:25.098Z,1.60
2023-02-28T20:42:07.673Z,1.70
2023-02-28T20:45:54.716Z,1.83
2023-02-28T20:49:36.741Z,1.70
2023-02-28T20:53:19.288Z,1.58
2023-02-28T20:57:01.251Z,1.95
2023-02-28T21:00:43.176Z,1.98
2023-02-28T21:04:25.212Z,1.80
2023-02-28T21:08:07.273Z,1.80
2023-02-28T21:11:49.838Z,1.88
2023-02-28T21:15:31.897Z,1.60
2023-02-28T21:19:14.215Z,1.60
2023-02-28T21:22:56.250Z,1.40
2023-02-28T21:26:40.395Z,1.50
2023-02-28T21:30:22.831Z,1.33
2023-02-28T21:34:07.436Z,1.02
2023-02-28T21:37:49.598Z,1.10
2023-02-28T21:41:31.609Z,0.80
2023-02-28T21:45:13.591Z,0.68
2023-02-28T21:48:56.920Z,0.80
2023-02-28T21:52:38.921Z,0.70
2023-02-28T21:56:26.627Z,0.70
2023-02-28T22:00:10.541Z,0.50
2023-02-28T22:03:53.143Z,0.98
2023-02-28T22:07:35.201Z,0.80
2023-02-28T22:11:18.159Z,0.60
2023-02-28T22:15:00.179Z,0.60
2023-02-28T22:18:42.515Z,0.60
2023-02-28T22:22:26.043Z,0.65
2023-02-28T22:26:10.612Z,0.80
2023-02-28T22:29:56.396Z,0.90
2023-02-28T22:33:38.456Z,0.80
2023-02-28T22:37:20.404Z,0.73
2023-02-28T22:41:04.220Z,0.90
2023-02-28T22:44:46.938Z,0.75
2023-02-28T22:48:28.939Z,1.02
2023-02-28T22:52:11.251Z,0.65
2023-02-28T22:55:56.580Z,0.70
2023-02-28T22:59:38.729Z,0.80
2023-02-28T23:03:30.674Z,0.60
2023-02-28T23:07:14.331Z,0.50
2023-02-28T23:10:56.268Z,0.60
2023-02-28T23:14:38.280Z,0.55
2023-02-28T23:18:20.283Z,0.40
2023-02-28T23:22:03.483Z,0.60
2023-02-28T23:25:45.478Z,0.40
2023-02-28T23:29:27.742Z,0.50
2023-02-28T23:33:09.713Z,0.40
2023-02-28T23:36:52.177Z,0.40
2023-02-28T23:40:34.115Z,0.50
2023-02-28T23:44:19.981Z,0.47
2023-02-28T23:48:02.042Z,0.60
2023-02-28T23:51:44.006Z,0.70
2023-02-28T23:55:26.035Z,0.70
2023-02-28T23:59:08.048Z,0.80
